createdAt,value
2022-11-29T00:01:40.725Z,100581.40
2022-11-29T00:04:09.351Z,100581.40
2022-11-29T00:06:37.931Z,100590.20
2022-11-29T00:09:09.402Z,100589.80
2022-11-29T00:11:57.015Z,100585.20
2022-11-29T00:14:27.240Z,100584.00
2022-11-29T00:17:02.413Z,100587.20
2022-11-29T00:19:33.684Z,100588.80
2022-11-29T00:22:02.889Z,100589.40
2022-11-29T00:24:34.570Z,100591.60
2022-11-29T00:27:02.823Z,100595.00
2022-11-29T00:29:30.924Z,100599.40
2022-11-29T00:31:59.545Z,100598.60
2022-11-29T00:34:28.264Z,100604.60
2022-11-29T00:36:56.010Z,100603.60
2022-11-29T00:39:24.231Z,100603.60
2022-11-29T00:41:51.912Z,100605.40
2022-11-29T00:44:20.585Z,100605.60
2022-11-29T00:46:49.043Z,100610.00
2022-11-29T00:49:17.379Z,100613.40
2022-11-29T00:51:46.368Z,100615.60
2022-11-29T00:54:14.247Z,100617.80
2022-11-29T00:56:42.122Z,100617.80
2022-11-29T00:59:10.020Z,100615.40
2022-11-29T01:01:37.750Z,100617.80
2022-11-29T01:04:05.513Z,100615.60
2022-11-29T01:06:33.241Z,100625.00
2022-11-29T01:09:00.946Z,100626.80
2022-11-29T01:11:29.147Z,100629.60
2022-11-29T01:14:01.226Z,100633.00
2022-11-29T01:16:32.051Z,100634.00
2022-11-29T01:19:00.540Z,100638.00
2022-11-29T01:21:28.633Z,100637.00
2022-11-29T01:23:56.854Z,100633.00
2022-11-29T01:26:27.825Z,100637.00
2022-11-29T01:28:57.179Z,100643.80
2022-11-29T01:31:30.387Z,100652.20
2022-11-29T01:34:02.620Z,100651.00
2022-11-29T01:36:30.608Z,100652.80
2022-11-29T01:39:04.098Z,100652.80
2022-11-29T01:41:34.801Z,100655.80
2022-11-29T01:44:11.566Z,100657.00
2022-11-29T01:46:43.496Z,100657.80
2022-11-29T01:49:23.071Z,100657.80
2022-11-29T01:52:00.861Z,100661.40
2022-11-29T01:54:32.184Z,100662.40
2022-11-29T01:57:03.904Z,100662.60
2022-11-29T01:59:31.806Z,100669.60
2022-11-29T02:02:08.601Z,100670.60
2022-11-29T02:04:38.387Z,100676.80
2022-11-29T02:07:06.216Z,100682.40
2022-11-29T02:09:33.992Z,100680.20
2022-11-29T02:12:14.944Z,100688.80
2022-11-29T02:14:55.463Z,100691.40
2022-11-29T02:17:53.657Z,100695.20
2022-11-29T02:20:36.295Z,100702.40
2022-11-29T02:23:36.019Z,100710.60
2022-11-29T02:26:33.923Z,100709.20
2022-11-29T02:29:31.890Z,100713.40
2022-11-29T02:32:39.601Z,100723.40
2022-11-29T02:35:38.550Z,100722.80
2022-11-29T02:38:27.912Z,100731.00
2022-11-29T02:41:22.817Z,100723.20
2022-11-29T02:44:34.091Z,100724.00
2022-11-29T02:47:19.552Z,100732.60
2022-11-29T02:50:18.022Z,100734.80
2022-11-29T02:53:06.667Z,100741.00
2022-11-29T02:56:01.781Z,100737.60
2022-11-29T02:58:52.617Z,100744.80
2022-11-29T03:01:33.670Z,100742.80
2022-11-29T03:04:50.994Z,100750.00
2022-11-29T03:07:44.114Z,100750.40
2022-11-29T03:10:55.616Z,100754.60
2022-11-29T03:13:51.681Z,100761.00
2022-11-29T03:16:56.876Z,100766.20
2022-11-29T03:19:39.022Z,100774.20
2022-11-29T03:22:45.811Z,100776.40
2022-11-29T03:25:27.502Z,100780.60
2022-11-29T03:28:22.534Z,100786.00
2022-11-29T03:31:19.975Z,100794.20
2022-11-29T03:34:18.761Z,100794.80
2022-11-29T03:37:49.441Z,100797.40
2022-11-29T03:40:24.413Z,100800.80
2022-11-29T03:43:14.083Z,100804.80
2022-11-29T03:46:00.932Z,100811.00
2022-11-29T03:48:37.768Z,100813.00
2022-11-29T03:51:41.021Z,100817.20
2022-11-29T03:54:19.632Z,100816.80
2022-11-29T03:56:47.894Z,100818.20
2022-11-29T03:59:37.907Z,100821.60
2022-11-29T04:02:44.665Z,100827.60
2022-11-29T04:05:42.591Z,100833.80
2022-11-29T04:08:50.860Z,100836.40
2022-11-29T04:11:54.750Z,100834.00
2022-11-29T04:15:12.773Z,100836.00
2022-11-29T04:18:18.581Z,100839.80
2022-11-29T04:21:10.512Z,100843.80
2022-11-29T04:24:09.355Z,100847.80
2022-11-29T04:27:04.923Z,100842.40
2022-11-29T04:29:50.659Z,100846.00
2022-11-29T04:33:10.323Z,100846.40
2022-11-29T04:36:17.819Z,100854.60
2022-11-29T04:39:06.499Z,100850.20
2022-11-29T04:41:46.103Z,100852.20
2022-11-29T04:45:19.003Z,100856.40
2022-11-29T04:48:22.344Z,100858.20
2022-11-29T04:51:22.466Z,100870.60
2022-11-29T04:54:13.813Z,100864.20
2022-11-29T04:56:50.827Z,100866.00
2022-11-29T04:59:28.080Z,100872.20
2022-11-29T05:02:09.863Z,100873.20
2022-11-29T05:05:00.745Z,100882.20
2022-11-29T05:07:44.486Z,100878.40
2022-11-29T05:11:02.171Z,100885.60
2022-11-29T05:13:58.910Z,100882.00
2022-11-29T05:17:08.001Z,100890.60
2022-11-29T05:20:18.993Z,100896.40
2022-11-29T05:23:01.756Z,100900.20
2022-11-29T05:25:40.206Z,100901.00
2022-11-29T05:28:16.973Z,100901.40
2022-11-29T05:30:58.422Z,100902.00
2022-11-29T05:33:56.505Z,100907.80
2022-11-29T05:37:17.887Z,100903.00
2022-11-29T05:40:14.481Z,100900.20
2022-11-29T05:43:29.794Z,100913.20
2022-11-29T05:46:18.581Z,100915.00
2022-11-29T05:49:21.048Z,100909.40
2022-11-29T05:52:24.406Z,100909.20
2022-11-29T05:55:14.170Z,100909.60
2022-11-29T05:58:19.088Z,100913.60
2022-11-29T06:01:18.814Z,100924.60
2022-11-29T06:03:58.376Z,100929.20
2022-11-29T06:06:55.481Z,100932.20
2022-11-29T06:09:49.964Z,100932.20
2022-11-29T06:12:24.844Z,100936.40
2022-11-29T06:15:17.253Z,100938.20
2022-11-29T06:17:55.161Z,100936.80
2022-11-29T06:20:46.032Z,100949.60
2022-11-29T06:23:29.202Z,100948.60
2022-11-29T06:26:25.208Z,100945.00
2022-11-29T06:29:51.121Z,100951.20
2022-11-29T06:32:44.372Z,100954.00
2022-11-29T06:35:45.779Z,100959.20
2022-11-29T06:38:22.890Z,100960.80
2022-11-29T06:40:54.012Z,100971.20
2022-11-29T06:43:25.921Z,100971.80
2022-11-29T06:46:17.544Z,100974.20
2022-11-29T06:49:01.943Z,100979.40
2022-11-29T06:51:42.925Z,100980.20
2022-11-29T06:54:33.852Z,100980.20
2022-11-29T06:57:29.514Z,100985.80
2022-11-29T07:00:26.846Z,100994.00
2022-11-29T07:03:31.048Z,100999.80
2022-11-29T07:05:59.219Z,101008.80
2022-11-29T07:08:27.401Z,101006.60
2022-11-29T07:10:56.051Z,101010.00
2022-11-29T07:13:24.150Z,101020.40
2022-11-29T07:16:33.852Z,101025.60
2022-11-29T07:19:36.691Z,101026.00
2022-11-29T07:22:32.838Z,101031.60
2022-11-29T07:25:17.593Z,101034.20
2022-11-29T07:28:27.861Z,101028.20
2022-11-29T07:31:32.324Z,101029.40
2022-11-29T07:34:40.283Z,101031.20
2022-11-29T07:37:37.699Z,101036.60
2022-11-29T07:40:27.112Z,101037.60
2022-11-29T07:43:28.912Z,101047.00
2022-11-29T07:45:57.391Z,101052.80
2022-11-29T07:48:25.105Z,101055.40
2022-11-29T07:50:55.976Z,101052.60
2022-11-29T07:53:24.380Z,101063.80
2022-11-29T07:55:52.586Z,101074.60
2022-11-29T07:58:20.658Z,101070.60
2022-11-29T08:00:48.430Z,101080.60
2022-11-29T08:03:16.240Z,101081.00
2022-11-29T08:05:47.482Z,101085.20
2022-11-29T08:08:15.469Z,101088.00
2022-11-29T08:10:44.496Z,101091.60
2022-11-29T08:13:12.358Z,101099.40
2022-11-29T08:15:47.699Z,101093.80
2022-11-29T08:18:16.373Z,101098.00
2022-11-29T08:20:46.165Z,101098.60
2022-11-29T08:23:14.700Z,101102.40
2022-11-29T08:25:42.440Z,101101.80
2022-11-29T08:28:10.162Z,101104.00
2022-11-29T08:30:38.242Z,101106.20
2022-11-29T08:33:07.061Z,101104.40
2022-11-29T08:35:35.843Z,101102.20
2022-11-29T08:38:04.852Z,101102.00
2022-11-29T08:40:32.705Z,101096.20
2022-11-29T08:43:00.394Z,101095.00
2022-11-29T08:45:28.246Z,101096.60
2022-11-29T08:47:56.028Z,101091.80
2022-11-29T08:50:24.547Z,101094.00
2022-11-29T08:53:11.119Z,101093.20
2022-11-29T08:55:42.894Z,101087.80
2022-11-29T08:58:14.923Z,101084.80
2022-11-29T09:00:46.896Z,101078.40
2022-11-29T09:03:33.734Z,101081.00
2022-11-29T09:06:11.995Z,101073.60
2022-11-29T09:08:45.231Z,101079.40
2022-11-29T09:11:22.106Z,101088.20
2022-11-29T09:13:53.931Z,101102.00
2022-11-29T09:16:25.462Z,101111.20
2022-11-29T09:18:55.857Z,101115.00
2022-11-29T09:21:26.901Z,101117.80
2022-11-29T09:23:59.274Z,101121.40
2022-11-29T09:26:30.935Z,101137.00
2022-11-29T09:29:01.233Z,101147.00
2022-11-29T09:31:31.282Z,101157.00
2022-11-29T09:33:59.223Z,101167.80
2022-11-29T09:36:29.463Z,101168.80
2022-11-29T09:38:58.631Z,101173.00
2022-11-29T09:42:01.247Z,101178.20
2022-11-29T09:45:07.777Z,101181.20
2022-11-29T09:48:07.323Z,101183.60
2022-11-29T09:50:47.584Z,101186.40
2022-11-29T09:53:43.930Z,101193.00
2022-11-29T09:56:34.327Z,101187.60
2022-11-29T09:59:10.861Z,101189.40
2022-11-29T10:01:46.597Z,101182.40
2022-11-29T10:04:21.270Z,101181.60
2022-11-29T10:07:08.634Z,101173.20
2022-11-29T10:09:46.048Z,101172.20
2022-11-29T10:12:35.054Z,101175.00
2022-11-29T10:15:29.200Z,101175.60
2022-11-29T10:18:24.334Z,101171.20
2022-11-29T10:20:58.521Z,101170.00
2022-11-29T10:23:41.690Z,101168.40
2022-11-29T10:26:12.290Z,101172.40
2022-11-29T10:28:45.097Z,101178.20
2022-11-29T10:31:49.498Z,101177.40
2022-11-29T10:34:21.871Z,101182.40
2022-11-29T10:36:59.881Z,101187.60
2022-11-29T10:40:04.431Z,101197.60
2022-11-29T10:42:51.957Z,101198.00
2022-11-29T10:45:35.476Z,101199.40
2022-11-29T10:48:10.596Z,101202.40
2022-11-29T10:50:44.015Z,101204.00
2022-11-29T10:53:24.173Z,101210.00
2022-11-29T10:56:08.741Z,101210.00
2022-11-29T10:58:52.498Z,101211.40
2022-11-29T11:01:20.657Z,101215.80
2022-11-29T11:03:54.657Z,101215.20
2022-11-29T11:06:25.692Z,101215.00
2022-11-29T11:09:14.420Z,101214.00
2022-11-29T11:11:52.665Z,101212.40
2022-11-29T11:14:32.878Z,101208.60
2022-11-29T11:17:27.182Z,101204.80
2022-11-29T11:20:25.807Z,101211.40
2022-11-29T11:23:03.725Z,101209.40
2022-11-29T11:25:40.796Z,101208.20
2022-11-29T11:28:22.741Z,101204.60
2022-11-29T11:30:55.759Z,101211.20
2022-11-29T11:33:31.436Z,101208.60
2022-11-29T11:36:34.801Z,101201.00
2022-11-29T11:39:13.138Z,101194.80
2022-11-29T11:42:04.328Z,101192.80
2022-11-29T11:44:50.010Z,101190.00
2022-11-29T11:47:27.273Z,101185.60
2022-11-29T11:50:02.179Z,101187.80
2022-11-29T11:52:41.340Z,101189.40
2022-11-29T11:55:41.017Z,101187.00
2022-11-29T11:58:16.223Z,101186.80
2022-11-29T12:01:23.094Z,101184.80
2022-11-29T12:03:58.959Z,101180.60
2022-11-29T12:07:02.887Z,101170.20
2022-11-29T12:09:46.263Z,101164.40
2022-11-29T12:12:21.097Z,101164.00
2022-11-29T12:15:03.266Z,101164.80
2022-11-29T12:17:48.955Z,101167.20
2022-11-29T12:20:28.586Z,101173.40
2022-11-29T12:23:02.925Z,101183.00
2022-11-29T12:25:54.914Z,101185.20
2022-11-29T12:28:32.120Z,101182.20
2022-11-29T12:31:42.739Z,101184.80
2022-11-29T12:34:43.180Z,101184.60
2022-11-29T12:37:28.111Z,101182.00
2022-11-29T12:40:11.083Z,101175.40
2022-11-29T12:43:03.313Z,101179.80
2022-11-29T12:46:08.039Z,101189.60
2022-11-29T12:48:57.106Z,101198.20
2022-11-29T12:51:46.723Z,101197.00
2022-11-29T12:54:38.399Z,101195.00
2022-11-29T12:57:23.734Z,101201.20
2022-11-29T13:00:14.663Z,101199.80
2022-11-29T13:03:26.148Z,101202.60
2022-11-29T13:06:23.323Z,101198.60
2022-11-29T13:09:24.324Z,101189.40
2022-11-29T13:12:10.381Z,101198.40
2022-11-29T13:15:01.281Z,101196.40
2022-11-29T13:18:14.420Z,101202.80
2022-11-29T13:20:52.565Z,101199.40
2022-11-29T13:24:07.234Z,101199.00
2022-11-29T13:26:30.902Z,101200.40
2022-11-29T13:29:01.803Z,101194.40
2022-11-29T13:31:31.109Z,101195.80
2022-11-29T13:34:09.542Z,101196.80
2022-11-29T13:36:52.274Z,101196.60
2022-11-29T13:39:36.708Z,101201.00
2022-11-29T13:42:17.011Z,101201.60
2022-11-29T13:45:01.587Z,101197.40
2022-11-29T13:47:29.522Z,101197.00
2022-11-29T13:50:36.218Z,101193.00
2022-11-29T13:53:14.945Z,101195.00
2022-11-29T13:56:02.317Z,101197.40
2022-11-29T13:58:38.590Z,101193.00
2022-11-29T14:01:14.589Z,101185.80
2022-11-29T14:04:07.409Z,101190.40
2022-11-29T14:06:38.069Z,101189.60
2022-11-29T14:09:25.926Z,101194.80
2022-11-29T14:12:26.972Z,101199.60
2022-11-29T14:15:04.016Z,101198.40
2022-11-29T14:18:09.832Z,101195.20
2022-11-29T14:20:54.293Z,101187.40
2022-11-29T14:23:40.965Z,101186.20
2022-11-29T14:26:08.565Z,101186.60
2022-11-29T14:28:39.131Z,101190.00
2022-11-29T14:31:08.969Z,101186.60
2022-11-29T14:34:12.077Z,101183.40
2022-11-29T14:36:53.908Z,101182.60
2022-11-29T14:39:44.251Z,101187.60
2022-11-29T14:42:25.503Z,101194.60
2022-11-29T14:45:01.542Z,101205.00
2022-11-29T14:47:37.119Z,101209.00
2022-11-29T14:50:10.668Z,101207.60
2022-11-29T14:52:51.874Z,101213.60
2022-11-29T14:55:19.465Z,101208.40
2022-11-29T14:57:47.073Z,101212.20
2022-11-29T15:00:18.957Z,101219.60
2022-11-29T15:03:21.171Z,101221.40
2022-11-29T15:06:25.623Z,101226.80
2022-11-29T15:09:16.426Z,101229.20
2022-11-29T15:12:00.292Z,101223.60
2022-11-29T15:15:19.215Z,101224.60
2022-11-29T15:18:12.149Z,101219.00
2022-11-29T15:20:55.082Z,101216.20
2022-11-29T15:23:22.908Z,101213.40
2022-11-29T15:25:54.026Z,101220.20
2022-11-29T15:28:28.775Z,101233.60
2022-11-29T15:31:09.355Z,101242.40
2022-11-29T15:33:42.539Z,101228.60
2022-11-29T15:36:21.053Z,101223.60
2022-11-29T15:38:52.300Z,101224.80
2022-11-29T15:41:28.677Z,101231.00
2022-11-29T15:44:06.270Z,101235.00
2022-11-29T15:46:35.770Z,101242.40
2022-11-29T15:49:22.311Z,101245.20
2022-11-29T15:51:57.222Z,101242.00
2022-11-29T15:54:48.988Z,101242.60
2022-11-29T15:57:28.766Z,101238.00
2022-11-29T16:00:02.225Z,101245.60
2022-11-29T16:02:38.158Z,101249.60
2022-11-29T16:05:37.680Z,101246.20
2022-11-29T16:08:18.825Z,101246.00
2022-11-29T16:10:52.918Z,101248.40
2022-11-29T16:13:33.318Z,101251.40
2022-11-29T16:16:22.846Z,101247.80
2022-11-29T16:18:51.248Z,101249.20
2022-11-29T16:21:32.101Z,101245.80
2022-11-29T16:24:13.750Z,101246.20
2022-11-29T16:26:44.565Z,101252.80
2022-11-29T16:29:33.865Z,101249.00
2022-11-29T16:32:32.287Z,101246.40
2022-11-29T16:35:28.453Z,101242.00
2022-11-29T16:37:57.023Z,101241.40
2022-11-29T16:40:28.988Z,101248.80
2022-11-29T16:43:03.215Z,101254.00
2022-11-29T16:45:35.400Z,101256.60
2022-11-29T16:48:28.933Z,101256.00
2022-11-29T16:51:25.338Z,101262.40
2022-11-29T16:53:55.969Z,101271.80
2022-11-29T16:56:27.872Z,101275.00
2022-11-29T16:59:24.575Z,101277.80
2022-11-29T17:01:49.501Z,101278.60
2022-11-29T17:04:23.484Z,101266.40
2022-11-29T17:06:55.849Z,101266.00
2022-11-29T17:09:28.419Z,101272.40
2022-11-29T17:11:59.764Z,101278.60
2022-11-29T17:14:31.849Z,101279.60
2022-11-29T17:17:02.659Z,101280.00
2022-11-29T17:19:31.072Z,101279.00
2022-11-29T17:21:59.398Z,101282.80
2022-11-29T17:24:27.170Z,101284.20
2022-11-29T17:26:55.094Z,101289.80
2022-11-29T17:29:22.770Z,101296.80
2022-11-29T17:31:50.689Z,101297.20
2022-11-29T17:34:18.893Z,101295.40
2022-11-29T17:36:46.819Z,101302.20
2022-11-29T17:39:15.731Z,101301.40
2022-11-29T17:41:43.526Z,101300.40
2022-11-29T17:44:11.284Z,101301.20
2022-11-29T17:46:39.024Z,101301.80
2022-11-29T17:49:09.784Z,101302.60
2022-11-29T17:51:55.916Z,101302.40
2022-11-29T17:54:24.135Z,101302.20
2022-11-29T17:56:51.919Z,101302.00
2022-11-29T17:59:20.336Z,101299.00
2022-11-29T18:01:48.186Z,101306.20
2022-11-29T18:04:16.020Z,101305.00
2022-11-29T18:06:44.052Z,101304.00
2022-11-29T18:09:12.835Z,101313.40
2022-11-29T18:11:49.282Z,101316.00
2022-11-29T18:14:23.314Z,101326.80
2022-11-29T18:16:51.663Z,101320.60
2022-11-29T18:19:22.370Z,101323.60
2022-11-29T18:21:51.275Z,101322.00
2022-11-29T18:24:19.599Z,101321.60
2022-11-29T18:26:47.678Z,101319.20
2022-11-29T18:29:15.496Z,101325.20
2022-11-29T18:31:45.253Z,101321.20
2022-11-29T18:34:14.552Z,101328.80
2022-11-29T18:36:46.287Z,101332.20
2022-11-29T18:39:20.012Z,101339.00
2022-11-29T18:41:50.433Z,101343.00
2022-11-29T18:44:21.653Z,101344.20
2022-11-29T18:46:49.673Z,101341.80
2022-11-29T18:49:18.529Z,101336.00
2022-11-29T18:51:48.754Z,101334.40
2022-11-29T18:54:18.938Z,101336.20
2022-11-29T18:56:49.983Z,101333.40
2022-11-29T18:59:18.064Z,101333.40
2022-11-29T19:01:47.913Z,101331.80
2022-11-29T19:04:20.321Z,101329.40
2022-11-29T19:06:48.666Z,101336.20
2022-11-29T19:09:21.204Z,101333.20
2022-11-29T19:11:49.795Z,101337.00
2022-11-29T19:14:19.237Z,101337.00
2022-11-29T19:16:49.240Z,101343.40
2022-11-29T19:19:18.885Z,101336.80
2022-11-29T19:21:47.300Z,101339.00
2022-11-29T19:24:17.653Z,101342.40
2022-11-29T19:26:48.093Z,101346.60
2022-11-29T19:29:17.266Z,101340.40
2022-11-29T19:31:45.172Z,101343.80
2022-11-29T19:34:13.542Z,101346.60
2022-11-29T19:36:43.103Z,101340.80
2022-11-29T19:39:14.792Z,101341.80
2022-11-29T19:41:46.257Z,101342.60
2022-11-29T19:44:14.572Z,101343.20
2022-11-29T19:46:48.354Z,101337.60
2022-11-29T19:49:17.205Z,101339.60
2022-11-29T19:51:44.922Z,101335.40
2022-11-29T19:54:13.024Z,101337.80
2022-11-29T19:56:40.819Z,101344.60
2022-11-29T19:59:09.055Z,101337.20
2022-11-29T20:01:41.360Z,101343.00
2022-11-29T20:04:12.943Z,101346.20
2022-11-29T20:06:40.975Z,101347.40
2022-11-29T20:09:09.353Z,101345.20
2022-11-29T20:11:37.265Z,101341.00
2022-11-29T20:14:07.310Z,101343.00
2022-11-29T20:16:37.831Z,101342.60
2022-11-29T20:19:12.294Z,101345.40
2022-11-29T20:21:45.209Z,101347.40
2022-11-29T20:24:14.697Z,101352.00
2022-11-29T20:26:46.983Z,101359.60
2022-11-29T20:29:15.962Z,101355.00
2022-11-29T20:31:50.070Z,101355.60
2022-11-29T20:34:20.233Z,101355.60
2022-11-29T20:37:15.977Z,101357.80
2022-11-29T20:40:00.249Z,101364.20
2022-11-29T20:43:03.846Z,101367.40
2022-11-29T20:45:32.522Z,101365.80
2022-11-29T20:48:15.276Z,101362.80
2022-11-29T20:50:51.957Z,101366.40
2022-11-29T20:53:42.300Z,101370.40
2022-11-29T20:56:11.961Z,101375.40
2022-11-29T20:58:40.009Z,101375.20
2022-11-29T21:01:08.070Z,101374.00
2022-11-29T21:03:36.191Z,101380.80
2022-11-29T21:06:06.323Z,101381.80
2022-11-29T21:08:34.230Z,101380.00
2022-11-29T21:11:05.544Z,101386.60
2022-11-29T21:13:34.180Z,101380.20
2022-11-29T21:16:03.027Z,101379.20
2022-11-29T21:18:32.234Z,101376.60
2022-11-29T21:21:25.342Z,101380.80
2022-11-29T21:24:46.006Z,101371.60
2022-11-29T21:27:28.717Z,101370.00
2022-11-29T21:29:57.018Z,101368.20
2022-11-29T21:32:27.314Z,101367.20
2022-11-29T21:34:55.047Z,101371.20
2022-11-29T21:37:29.197Z,101363.60
2022-11-29T21:39:58.396Z,101369.60
2022-11-29T21:42:27.199Z,101373.40
2022-11-29T21:44:54.936Z,101371.40
2022-11-29T21:47:22.853Z,101378.40
2022-11-29T21:49:52.582Z,101372.60
2022-11-29T21:52:22.713Z,101376.00
2022-11-29T21:54:50.811Z,101378.20
2022-11-29T21:57:18.509Z,101381.00
2022-11-29T21:59:46.224Z,101375.40
2022-11-29T22:02:14.237Z,101384.20
2022-11-29T22:04:42.224Z,101386.40
2022-11-29T22:07:09.932Z,101387.80
2022-11-29T22:09:37.585Z,101386.20
2022-11-29T22:12:25.794Z,101381.20
2022-11-29T22:14:53.413Z,101387.00
2022-11-29T22:17:21.163Z,101383.80
2022-11-29T22:19:48.849Z,101382.60
2022-11-29T22:22:16.560Z,101389.20
2022-11-29T22:24:44.428Z,101391.20
2022-11-29T22:27:12.649Z,101389.40
2022-11-29T22:29:40.294Z,101391.60
2022-11-29T22:32:07.937Z,101389.80
2022-11-29T22:34:35.573Z,101393.40
2022-11-29T22:37:03.412Z,101387.40
2022-11-29T22:39:31.172Z,101384.40
2022-11-29T22:41:58.814Z,101385.80
2022-11-29T22:44:26.537Z,101388.80
2022-11-29T22:46:54.329Z,101384.00
2022-11-29T22:49:22.096Z,101384.40
2022-11-29T22:51:49.997Z,101385.00
2022-11-29T22:54:17.992Z,101385.20
2022-11-29T22:56:46.820Z,101393.40
2022-11-29T22:59:14.677Z,101394.00
2022-11-29T23:01:42.583Z,101384.40
2022-11-29T23:04:12.334Z,101386.40
2022-11-29T23:06:45.702Z,101391.80
2022-11-29T23:09:19.721Z,101394.20
2022-11-29T23:11:56.201Z,101393.60
2022-11-29T23:14:24.395Z,101383.20
2022-11-29T23:16:52.698Z,101384.00
2022-11-29T23:19:20.958Z,101380.60
2022-11-29T23:21:48.775Z,101383.60
2022-11-29T23:24:16.593Z,101383.00
2022-11-29T23:26:47.260Z,101383.60
2022-11-29T23:29:18.704Z,101380.40
2022-11-29T23:31:47.821Z,101381.60
2022-11-29T23:34:15.587Z,101381.00
2022-11-29T23:36:48.272Z,101381.20
2022-11-29T23:39:19.034Z,101376.60
2022-11-29T23:41:46.707Z,101378.80
2022-11-29T23:44:14.433Z,101373.40
2022-11-29T23:46:42.134Z,101369.00
2022-11-29T23:49:09.795Z,101375.20
2022-11-29T23:51:37.471Z,101372.40
2022-11-29T23:54:05.339Z,101375.40
2022-11-29T23:56:35.327Z,101371.20
2022-11-29T23:59:03.536Z,101373.00
